createdAt,value
2018-09-25T00:00:37.839Z,114.80
2018-09-25T00:03:19.740Z,102.50
2018-09-25T00:06:02.524Z,110.03
2018-09-25T00:08:44.998Z,101.40
2018-09-25T00:11:27.419Z,110.27
2018-09-25T00:14:09.786Z,112.17
2018-09-25T00:16:53.596Z,117.87
2018-09-25T00:19:36.703Z,98.23
2018-09-25T00:22:19.404Z,85.17
2018-09-25T00:25:01.318Z,106.43
2018-09-25T00:27:45.578Z,93.10
2018-09-25T00:30:27.659Z,102.83
2018-09-25T00:33:09.884Z,117.17
2018-09-25T00:35:52.602Z,110.47
2018-09-25T00:38:34.758Z,83.00
2018-09-25T00:41:16.643Z,93.93
2018-09-25T00:43:59.357Z,136.80
2018-09-25T00:46:41.115Z,97.67
2018-09-25T00:49:23.026Z,108.73
2018-09-25T00:52:08.235Z,69.43
2018-09-25T00:54:50.397Z,105.10
2018-09-25T00:57:32.585Z,121.80
2018-09-25T01:00:15.165Z,136.73
2018-09-25T01:02:57.339Z,147.57
2018-09-25T01:05:39.039Z,121.33
2018-09-25T01:08:21.940Z,130.00
2018-09-25T01:11:03.480Z,141.73
2018-09-25T01:13:45.585Z,141.03
2018-09-25T01:16:28.119Z,110.10
2018-09-25T01:19:11.593Z,124.97
2018-09-25T01:21:54.683Z,116.70
2018-09-25T01:24:37.997Z,119.60
2018-09-25T01:27:22.383Z,104.63
2018-09-25T01:30:04.976Z,143.70
2018-09-25T01:32:47.402Z,159.57
2018-09-25T01:35:29.875Z,139.60
2018-09-25T01:38:12.783Z,150.40
2018-09-25T01:40:55.239Z,198.07
2018-09-25T01:43:38.178Z,202.53
2018-09-25T01:46:21.421Z,199.87
2018-09-25T01:49:03.255Z,206.23
2018-09-25T01:51:45.896Z,189.83
2018-09-25T01:54:29.353Z,209.03
2018-09-25T01:57:11.403Z,178.27
2018-09-25T01:59:54.760Z,200.73
2018-09-25T02:02:37.400Z,155.83
2018-09-25T02:05:20.260Z,118.97
2018-09-25T02:08:02.697Z,114.33
2018-09-25T02:10:45.279Z,172.13
2018-09-25T02:13:27.997Z,149.93
2018-09-25T02:16:10.799Z,184.20
2018-09-25T02:18:53.221Z,147.93
2018-09-25T02:21:36.320Z,184.40
2018-09-25T02:24:19.154Z,206.50
2018-09-25T02:27:01.418Z,214.43
2018-09-25T02:29:44.420Z,209.97
2018-09-25T02:32:27.340Z,203.10
2018-09-25T02:35:11.577Z,162.70
2018-09-25T02:37:53.174Z,189.20
2018-09-25T02:40:35.517Z,127.13
2018-09-25T02:43:17.060Z,127.10
2018-09-25T02:45:59.525Z,110.37
2018-09-25T02:48:40.901Z,127.90
2018-09-25T02:51:22.426Z,118.33
2018-09-25T02:54:05.079Z,73.07
2018-09-25T02:56:46.719Z,81.87
2018-09-25T02:59:28.681Z,100.67
2018-09-25T03:02:12.803Z,115.00
2018-09-25T03:04:55.158Z,121.43
2018-09-25T03:07:37.359Z,120.20
2018-09-25T03:10:20.802Z,107.23
2018-09-25T03:13:02.258Z,110.00
2018-09-25T03:15:44.403Z,111.33
2018-09-25T03:18:26.083Z,118.87
2018-09-25T03:21:08.656Z,135.27
2018-09-25T03:23:50.149Z,142.33
2018-09-25T03:26:32.621Z,99.40
2018-09-25T03:29:16.117Z,120.83
2018-09-25T03:31:58.974Z,82.30
2018-09-25T03:34:41.279Z,92.67
2018-09-25T03:37:25.058Z,57.27
2018-09-25T03:40:10.317Z,63.03
2018-09-25T03:42:53.800Z,64.70
2018-09-25T03:45:37.480Z,55.00
2018-09-25T03:48:19.721Z,50.63
2018-09-25T03:51:02.760Z,55.53
2018-09-25T03:53:46.397Z,48.60
2018-09-25T03:56:28.847Z,30.50
2018-09-25T03:59:11.100Z,38.53
2018-09-25T04:01:55.523Z,36.80
2018-09-25T04:04:36.822Z,32.20
2018-09-25T04:07:18.862Z,31.03
2018-09-25T04:09:59.716Z,43.23
2018-09-25T04:12:43.814Z,43.10
2018-09-25T04:15:24.722Z,43.23
2018-09-25T04:18:05.898Z,64.20
2018-09-25T04:20:47.773Z,32.07
2018-09-25T04:23:34.300Z,42.17
2018-09-25T04:26:15.675Z,41.87
2018-09-25T04:28:58.701Z,54.13
2018-09-25T04:31:41.775Z,42.67
2018-09-25T04:34:28.376Z,29.80
2018-09-25T04:37:09.465Z,40.30
2018-09-25T04:39:54.418Z,41.03
2018-09-25T04:42:38.356Z,39.27
2018-09-25T04:45:21.063Z,47.27
2018-09-25T04:48:06.280Z,43.30
2018-09-25T04:50:49.097Z,34.80
2018-09-25T04:53:34.482Z,34.27
2018-09-25T04:56:19.845Z,39.57
2018-09-25T04:59:03.479Z,34.30
2018-09-25T05:04:32.938Z,31.83
2018-09-25T05:07:17.503Z,30.83
2018-09-25T05:09:58.459Z,33.73
2018-09-25T05:12:40.499Z,28.57
2018-09-25T05:15:21.377Z,28.00
2018-09-25T05:18:05.391Z,30.37
2018-09-25T05:20:48.161Z,31.87
2018-09-25T05:23:31.954Z,76.67
2018-09-25T05:26:17.179Z,73.20
2018-09-25T05:29:01.425Z,105.20
2018-09-25T05:31:44.224Z,97.87
2018-09-25T05:34:25.780Z,137.37
2018-09-25T05:37:08.980Z,132.53
2018-09-25T05:39:52.157Z,169.87
2018-09-25T05:42:33.300Z,179.23
2018-09-25T05:45:13.738Z,189.30
2018-09-25T05:47:55.802Z,182.10
2018-09-25T05:50:38.460Z,230.40
2018-09-25T05:53:20.081Z,219.53
2018-09-25T05:56:03.976Z,191.80
2018-09-25T05:58:49.022Z,179.33
2018-09-25T06:01:29.796Z,150.07
2018-09-25T06:04:11.800Z,93.43
2018-09-25T06:06:54.957Z,77.03
2018-09-25T06:09:37.495Z,65.87
2018-09-25T06:12:21.341Z,59.40
2018-09-25T06:15:02.986Z,52.77
2018-09-25T06:17:46.242Z,39.67
2018-09-25T06:20:30.704Z,32.87
2018-09-25T06:23:14.028Z,33.67
2018-09-25T06:26:01.077Z,32.80
2018-09-25T06:28:46.481Z,55.93
2018-09-25T06:31:30.880Z,58.43
2018-09-25T06:34:15.224Z,58.70
2018-09-25T06:36:58.221Z,71.70
2018-09-25T06:39:38.520Z,93.60
2018-09-25T06:42:22.824Z,74.50
2018-09-25T06:45:07.879Z,91.80
2018-09-25T06:47:50.019Z,110.83
2018-09-25T06:50:31.362Z,123.10
2018-09-25T06:53:14.882Z,134.00
2018-09-25T06:55:57.720Z,144.37
2018-09-25T06:58:40.319Z,124.33
2018-09-25T07:01:21.898Z,126.17
2018-09-25T07:04:04.364Z,89.97
2018-09-25T07:06:50.995Z,126.37
2018-09-25T07:09:33.835Z,122.80
2018-09-25T07:12:17.387Z,116.30
2018-09-25T07:14:59.714Z,121.43
2018-09-25T07:17:43.461Z,132.37
2018-09-25T07:20:27.957Z,117.47
2018-09-25T07:23:11.738Z,71.40
2018-09-25T07:25:55.499Z,63.50
2018-09-25T07:28:37.274Z,79.10
2018-09-25T07:31:21.902Z,66.97
2018-09-25T07:34:03.460Z,86.23
2018-09-25T07:36:46.857Z,104.00
2018-09-25T07:39:29.258Z,86.40
2018-09-25T07:42:11.341Z,57.30
2018-09-25T07:44:56.766Z,89.07
2018-09-25T07:47:38.335Z,100.07
2018-09-25T07:50:20.437Z,84.50
2018-09-25T07:53:05.260Z,151.73
2018-09-25T07:55:51.460Z,145.83
2018-09-25T07:58:35.298Z,79.50
2018-09-25T08:01:19.556Z,33.23
2018-09-25T08:04:04.840Z,38.40
2018-09-25T08:06:48.299Z,197.13
2018-09-25T08:09:36.526Z,328.60
2018-09-25T08:12:17.420Z,321.67
2018-09-25T08:15:00.701Z,165.20
2018-09-25T08:17:44.506Z,182.93
2018-09-25T08:20:26.233Z,90.43
2018-09-25T08:23:11.682Z,140.20
2018-09-25T08:25:55.103Z,195.50
2018-09-25T08:28:39.040Z,24.10
2018-09-25T08:31:22.002Z,48.40
2018-09-25T08:34:06.959Z,74.97
2018-09-25T08:36:49.481Z,62.37
2018-09-25T08:39:31.143Z,78.80
2018-09-25T08:42:16.499Z,68.63
2018-09-25T08:45:05.219Z,38.73
2018-09-25T08:47:45.919Z,27.73
2018-09-25T08:50:32.901Z,41.20
2018-09-25T08:53:14.237Z,64.03
2018-09-25T08:55:57.779Z,175.73
2018-09-25T08:58:43.277Z,182.53
2018-09-25T09:01:48.580Z,148.70
2018-09-25T09:04:30.645Z,179.27
2018-09-25T09:07:15.219Z,149.93
2018-09-25T09:09:56.382Z,78.80
2018-09-25T09:12:37.752Z,34.67
2018-09-25T09:15:19.539Z,34.33
2018-09-25T09:18:02.978Z,19.27
2018-09-25T09:20:46.605Z,20.43
2018-09-25T09:23:29.479Z,20.57
2018-09-25T09:26:14.701Z,21.43
2018-09-25T09:28:55.159Z,23.67
2018-09-25T09:31:39.998Z,19.73
2018-09-25T09:34:23.842Z,19.67
2018-09-25T09:37:05.500Z,25.53
2018-09-25T09:39:50.262Z,41.10
2018-09-25T09:42:34.456Z,23.77
2018-09-25T09:45:18.563Z,73.97
2018-09-25T09:48:16.986Z,62.30
2018-09-25T09:51:02.117Z,28.80
2018-09-25T09:53:46.643Z,26.00
2018-09-25T09:56:28.591Z,24.50
2018-09-25T09:59:10.696Z,31.03
2018-09-25T10:01:57.262Z,34.33
2018-09-25T10:04:46.866Z,32.27
2018-09-25T10:07:31.275Z,24.13
2018-09-25T10:10:19.424Z,18.70
2018-09-25T10:13:02.936Z,19.37
2018-09-25T10:15:50.540Z,21.80
2018-09-25T10:18:37.166Z,23.17
2018-09-25T10:21:18.999Z,21.50
2018-09-25T10:24:02.961Z,22.70
2018-09-25T10:26:50.876Z,23.50
2018-09-25T10:29:45.959Z,23.67
2018-09-25T10:32:28.661Z,24.43
2018-09-25T10:35:12.619Z,27.58
2018-09-25T10:37:55.963Z,26.37
2018-09-25T10:40:36.899Z,28.87
2018-09-25T10:43:19.362Z,29.97
2018-09-25T10:46:03.161Z,25.27
2018-09-25T10:48:58.307Z,27.67
2018-09-25T10:51:39.918Z,30.80
2018-09-25T10:54:21.106Z,23.60
2018-09-25T10:57:02.857Z,25.77
2018-09-25T10:59:46.142Z,28.70
2018-09-25T11:02:31.962Z,33.60
2018-09-25T11:05:16.777Z,27.43
2018-09-25T11:07:58.056Z,33.73
2018-09-25T11:10:39.518Z,32.00
2018-09-25T11:13:22.037Z,33.97
2018-09-25T11:16:03.194Z,36.27
2018-09-25T11:18:49.703Z,38.30
2018-09-25T11:21:38.405Z,40.37
2018-09-25T11:24:28.464Z,42.30
2018-09-25T11:27:11.801Z,49.93
2018-09-25T11:29:54.883Z,52.93
2018-09-25T11:32:39.099Z,52.17
2018-09-25T11:35:24.057Z,51.63
2018-09-25T11:38:07.222Z,57.57
2018-09-25T11:40:50.404Z,47.67
2018-09-25T11:43:33.161Z,50.17
2018-09-25T11:46:14.977Z,50.03
2018-09-25T11:48:59.637Z,51.63
2018-09-25T11:51:42.540Z,43.30
2018-09-25T11:54:26.965Z,49.30
2018-09-25T11:57:08.176Z,51.73
2018-09-25T11:59:52.098Z,47.83
2018-09-25T12:02:37.819Z,46.97
2018-09-25T12:05:20.516Z,70.63
2018-09-25T12:08:05.542Z,53.87
2018-09-25T12:10:50.978Z,72.23
2018-09-25T12:13:43.384Z,68.00
2018-09-25T12:16:27.878Z,90.17
2018-09-25T12:19:09.578Z,64.03
2018-09-25T12:21:58.876Z,97.53
2018-09-25T12:24:41.238Z,82.53
2018-09-25T12:27:26.200Z,83.67
2018-09-25T12:30:09.355Z,64.27
2018-09-25T12:32:53.874Z,44.17
2018-09-25T12:35:40.204Z,46.93
2018-09-25T12:38:23.779Z,48.80
2018-09-25T12:41:08.287Z,60.37
2018-09-25T12:43:54.355Z,60.53
2018-09-25T12:46:43.180Z,52.47
2018-09-25T12:49:25.876Z,51.50
2018-09-25T12:52:08.743Z,52.97
2018-09-25T12:54:51.523Z,57.43
2018-09-25T12:57:32.177Z,49.50
2018-09-25T13:00:12.758Z,39.43
2018-09-25T13:02:57.016Z,65.37
2018-09-25T13:05:41.595Z,51.80
2018-09-25T13:08:23.876Z,50.70
2018-09-25T13:11:09.478Z,49.83
2018-09-25T13:13:56.024Z,40.90
2018-09-25T13:16:38.578Z,48.83
2018-09-25T13:19:25.279Z,44.13
2018-09-25T13:22:06.859Z,40.30
2018-09-25T13:24:52.819Z,50.07
2018-09-25T13:27:33.783Z,54.83
2018-09-25T13:30:16.102Z,41.20
2018-09-25T13:33:01.197Z,57.97
2018-09-25T13:35:42.256Z,57.80
2018-09-25T13:38:29.482Z,57.43
2018-09-25T13:41:11.681Z,47.30
2018-09-25T13:43:56.747Z,35.30
2018-09-25T13:46:38.114Z,45.73
2018-09-25T13:49:23.021Z,44.87
2018-09-25T13:52:04.440Z,46.73
2018-09-25T13:54:46.023Z,38.53
2018-09-25T13:57:27.900Z,45.97
2018-09-25T14:00:09.840Z,44.53
2018-09-25T14:02:56.258Z,34.17
2018-09-25T14:05:39.253Z,42.30
2018-09-25T14:08:20.322Z,43.57
2018-09-25T14:11:10.213Z,38.37
2018-09-25T14:13:50.803Z,33.37
2018-09-25T14:16:33.680Z,34.07
2018-09-25T14:19:20.023Z,40.73
2018-09-25T14:22:07.116Z,45.03
2018-09-25T14:24:51.920Z,33.33
2018-09-25T14:27:33.518Z,30.37
2018-09-25T14:30:20.284Z,32.07
2018-09-25T14:33:02.447Z,26.00
2018-09-25T14:35:43.559Z,25.87
2018-09-25T14:38:25.537Z,25.23
2018-09-25T14:41:06.218Z,21.53
2018-09-25T14:43:46.804Z,35.47
2018-09-25T14:46:31.275Z,28.07
2018-09-25T14:49:13.839Z,34.30
2018-09-25T14:51:55.077Z,36.43
2018-09-25T14:54:37.538Z,34.13
2018-09-25T14:57:21.921Z,31.70
2018-09-25T15:00:09.284Z,37.00
2018-09-25T15:02:51.996Z,35.33
2018-09-25T15:05:37.035Z,41.97
2018-09-25T15:08:22.904Z,42.10
2018-09-25T15:11:05.885Z,20.43
2018-09-25T15:13:50.763Z,31.87
2018-09-25T15:16:37.538Z,51.77
2018-09-25T15:19:21.457Z,52.83
2018-09-25T15:22:05.327Z,48.17
2018-09-25T15:24:46.902Z,27.40
2018-09-25T15:27:29.154Z,54.13
2018-09-25T15:30:11.479Z,66.10
2018-09-25T15:32:54.947Z,50.93
2018-09-25T15:35:37.954Z,40.07
2018-09-25T15:38:21.440Z,63.10
2018-09-25T15:41:03.086Z,54.27
2018-09-25T15:43:44.321Z,33.70
2018-09-25T15:46:27.124Z,39.07
2018-09-25T15:49:09.991Z,37.87
2018-09-25T15:51:57.237Z,55.50
2018-09-25T15:54:37.414Z,68.50
2018-09-25T15:57:19.763Z,53.57
2018-09-25T16:00:00.244Z,61.70
2018-09-25T16:02:43.813Z,52.00
2018-09-25T16:05:33.882Z,58.23
2018-09-25T16:08:16.783Z,51.57
2018-09-25T16:11:02.080Z,47.83
2018-09-25T16:13:48.616Z,51.37
2018-09-25T16:16:29.200Z,51.53
2018-09-25T16:19:11.881Z,50.60
2018-09-25T16:21:54.850Z,48.30
2018-09-25T16:24:38.171Z,48.63
2018-09-25T16:27:22.379Z,45.27
2018-09-25T16:30:05.444Z,40.97
2018-09-25T16:32:48.184Z,39.20
2018-09-25T16:35:32.124Z,38.63
2018-09-25T16:38:18.581Z,37.93
2018-09-25T16:41:02.060Z,41.20
2018-09-25T16:43:42.678Z,39.80
2018-09-25T16:46:25.181Z,38.13
2018-09-25T16:49:09.758Z,31.67
2018-09-25T16:51:54.963Z,32.20
2018-09-25T16:54:36.085Z,33.60
2018-09-25T16:57:20.080Z,31.27
2018-09-25T17:00:04.496Z,30.90
2018-09-25T17:02:44.984Z,31.33
2018-09-25T17:05:29.425Z,26.27
2018-09-25T17:08:13.681Z,30.30
2018-09-25T17:11:00.560Z,30.70
2018-09-25T17:13:44.923Z,29.83
2018-09-25T17:16:26.440Z,29.47
2018-09-25T17:19:09.469Z,25.57
2018-09-25T17:21:50.684Z,28.50
2018-09-25T17:24:36.777Z,30.10
2018-09-25T17:27:22.965Z,33.70
2018-09-25T17:30:03.618Z,35.40
2018-09-25T17:32:47.955Z,37.23
2018-09-25T17:35:31.360Z,42.73
2018-09-25T17:38:15.482Z,39.33
2018-09-25T17:40:58.155Z,47.27
2018-09-25T17:43:41.538Z,58.03
2018-09-25T17:46:23.158Z,96.93
2018-09-25T17:49:06.231Z,224.60
2018-09-25T17:51:46.920Z,285.33
2018-09-25T17:54:29.860Z,333.97
2018-09-25T17:57:13.085Z,302.37
2018-09-25T17:59:54.100Z,361.40
2018-09-25T18:02:36.983Z,263.73
2018-09-25T18:05:20.418Z,176.53
2018-09-25T18:08:02.396Z,105.93
2018-09-25T18:10:44.244Z,53.00
2018-09-25T18:13:25.218Z,32.80
2018-09-25T18:16:10.923Z,24.27
2018-09-25T18:18:52.035Z,37.23
2018-09-25T18:21:33.239Z,52.73
2018-09-25T18:24:14.676Z,96.70
2018-09-25T18:26:55.544Z,147.27
2018-09-25T18:29:39.760Z,203.10
2018-09-25T18:32:25.737Z,190.73
2018-09-25T18:35:09.239Z,123.03
2018-09-25T18:37:51.780Z,64.97
2018-09-25T18:40:35.254Z,38.37
2018-09-25T18:43:17.400Z,29.00
2018-09-25T18:46:02.020Z,42.23
2018-09-25T18:48:46.462Z,42.53
2018-09-25T18:51:28.727Z,52.43
2018-09-25T18:54:12.342Z,66.60
2018-09-25T18:56:55.997Z,84.70
2018-09-25T18:59:37.566Z,84.67
2018-09-25T19:02:19.844Z,111.87
2018-09-25T19:05:04.396Z,100.70
2018-09-25T19:07:47.820Z,104.17
2018-09-25T19:10:32.034Z,108.80
2018-09-25T19:13:15.201Z,126.93
2018-09-25T19:15:59.297Z,142.40
2018-09-25T19:18:42.076Z,143.00
2018-09-25T19:21:24.313Z,139.67
2018-09-25T19:24:05.696Z,139.03
2018-09-25T19:26:48.221Z,167.83
2018-09-25T19:29:28.938Z,207.00
2018-09-25T19:32:12.262Z,189.33
2018-09-25T19:34:52.919Z,202.53
2018-09-25T19:37:35.743Z,193.30
2018-09-25T19:40:18.798Z,192.53
2018-09-25T19:43:01.736Z,185.10
2018-09-25T19:45:44.403Z,170.33
2018-09-25T19:48:26.823Z,168.23
2018-09-25T19:51:10.221Z,161.07
2018-09-25T19:53:53.697Z,153.83
2018-09-25T19:56:36.181Z,138.70
2018-09-25T19:59:18.597Z,125.27
2018-09-25T20:02:01.520Z,104.77
2018-09-25T20:04:43.836Z,102.43
2018-09-25T20:07:26.461Z,112.30
2018-09-25T20:10:09.278Z,110.93
2018-09-25T20:12:52.097Z,111.63
2018-09-25T20:15:35.139Z,113.13
2018-09-25T20:18:16.537Z,115.97
2018-09-25T20:20:58.422Z,108.90
2018-09-25T20:23:41.060Z,87.93
2018-09-25T20:26:23.518Z,89.80
2018-09-25T20:29:05.378Z,189.63
2018-09-25T20:31:48.078Z,161.70
2018-09-25T20:34:29.939Z,107.33
2018-09-25T20:37:12.913Z,98.13
2018-09-25T20:39:56.143Z,86.40
2018-09-25T20:42:40.205Z,61.10
2018-09-25T20:45:22.480Z,57.20
2018-09-25T20:48:04.316Z,53.93
2018-09-25T20:50:45.973Z,42.10
2018-09-25T20:53:27.582Z,42.40
2018-09-25T20:56:10.937Z,38.87
2018-09-25T20:58:52.864Z,40.07
2018-09-25T21:01:35.467Z,37.70
2018-09-25T21:04:17.277Z,60.80
2018-09-25T21:06:59.958Z,47.43
2018-09-25T21:09:42.098Z,41.50
2018-09-25T21:12:25.037Z,36.37
2018-09-25T21:15:06.702Z,36.60
2018-09-25T21:17:48.041Z,36.57
2018-09-25T21:20:30.841Z,37.47
2018-09-25T21:23:13.023Z,39.57
2018-09-25T21:25:56.340Z,38.83
2018-09-25T21:28:38.501Z,39.77
2018-09-25T21:31:20.180Z,41.00
2018-09-25T21:34:02.736Z,39.40
2018-09-25T21:36:44.040Z,39.73
2018-09-25T21:39:26.524Z,37.73
2018-09-25T21:42:08.083Z,38.70
2018-09-25T21:44:50.050Z,35.33
2018-09-25T21:47:31.301Z,37.83
2018-09-25T21:50:13.302Z,35.57
2018-09-25T21:52:55.861Z,32.43
2018-09-25T21:55:37.325Z,45.10
2018-09-25T21:58:19.639Z,36.00
2018-09-25T22:01:02.717Z,36.37
2018-09-25T22:03:44.216Z,36.37
2018-09-25T22:06:26.104Z,36.80
2018-09-25T22:09:08.083Z,39.23
2018-09-25T22:11:50.784Z,46.23
2018-09-25T22:14:31.002Z,45.60
2018-09-25T22:17:13.003Z,67.93
2018-09-25T22:19:54.838Z,73.37
2018-09-25T22:22:36.225Z,55.77
2018-09-25T22:25:18.257Z,49.20
2018-09-25T22:28:00.046Z,53.30
2018-09-25T22:30:43.880Z,53.53
2018-09-25T22:33:26.564Z,67.03
2018-09-25T22:36:08.516Z,53.20
2018-09-25T22:38:50.637Z,50.57
2018-09-25T22:41:31.901Z,42.83
2018-09-25T22:44:13.964Z,42.10
2018-09-25T22:46:55.603Z,41.67
2018-09-25T22:49:37.341Z,39.73
2018-09-25T22:52:19.720Z,38.63
2018-09-25T22:55:01.936Z,40.77
2018-09-25T22:57:44.084Z,37.70
2018-09-25T23:00:25.960Z,36.73
2018-09-25T23:03:07.719Z,32.83
2018-09-25T23:05:49.404Z,33.90
2018-09-25T23:08:30.959Z,31.33
2018-09-25T23:11:13.426Z,31.30
2018-09-25T23:13:55.779Z,38.63
2018-09-25T23:16:37.995Z,41.60
2018-09-25T23:19:20.018Z,39.57
2018-09-25T23:22:02.384Z,40.87
2018-09-25T23:24:43.600Z,42.93
2018-09-25T23:27:26.636Z,31.90
2018-09-25T23:30:08.983Z,32.90
2018-09-25T23:32:49.596Z,31.27
2018-09-25T23:35:31.661Z,30.40
2018-09-25T23:38:13.161Z,29.93
2018-09-25T23:40:56.022Z,30.00
2018-09-25T23:43:38.439Z,32.97
2018-09-25T23:46:36.401Z,28.87
2018-09-25T23:50:19.436Z,33.47
2018-09-25T23:54:00.659Z,26.77
2018-09-25T23:56:45.179Z,26.33
2018-09-25T23:59:27.715Z,27.27
